Hempstead, New York
Current Conditions -  °F | °C
As of 12:51 PM on Saturday 20 Dec 2014 (Local Time) from KJFK Reporting Station
Overcast Overcast  
Wind Chill: 29°   Ceiling: 2800
Heat Index: 34°   Visibility: 10mi
Dew Point: 20°   Wind: 6mph
Humidity: 56%   Direction: 360°N
Pressure: 30.27"   Gusts: NA
Location:  40.71°N, 73.62°W
Report Text: KJFK 201751Z 36005KT 10SM OVC028 01/M07 A3027 RMK AO2 SLP249 VCSH S T00111067 10011 20000 58017 $
Loading
Personal Weather Stations






























Interactive Weather Map New forecast layout! Learn more

10-Day Weather Forecast

Advertisements
Track Severe Weather on mobile